createdAt,value
2022-11-20T00:01:15.716Z,32.20
2022-11-20T00:06:16.408Z,28.50
2022-11-20T00:11:17.111Z,29.00
2022-11-20T00:16:17.827Z,26.80
2022-11-20T00:21:18.551Z,27.40
2022-11-20T00:26:19.244Z,27.70
2022-11-20T00:31:20.052Z,29.00
2022-11-20T00:36:20.748Z,32.00
2022-11-20T00:41:21.506Z,32.00
2022-11-20T00:46:22.179Z,28.40
2022-11-20T00:51:22.891Z,28.60
2022-11-20T00:56:23.606Z,29.70
2022-11-20T01:01:24.411Z,27.70
2022-11-20T01:06:25.096Z,26.60
2022-11-20T01:11:25.800Z,29.50
2022-11-20T01:16:26.530Z,40.10
2022-11-20T01:21:27.250Z,30.70
2022-11-20T01:26:28.010Z,38.40
2022-11-20T01:31:28.747Z,37.80
2022-11-20T01:36:29.532Z,43.40
2022-11-20T01:41:30.257Z,31.90
2022-11-20T01:46:30.975Z,31.20
2022-11-20T01:51:31.709Z,32.10
2022-11-20T01:56:32.410Z,31.90
2022-11-20T02:01:33.183Z,28.40
2022-11-20T02:06:33.915Z,32.30
2022-11-20T02:11:34.671Z,30.10
2022-11-20T02:16:35.398Z,30.20
2022-11-20T02:21:36.114Z,31.80
2022-11-20T02:26:36.849Z,29.30
2022-11-20T02:31:37.562Z,25.90
2022-11-20T02:36:38.301Z,27.90
2022-11-20T02:41:39.018Z,26.10
2022-11-20T02:46:39.850Z,32.90
2022-11-20T02:51:40.555Z,30.10
2022-11-20T02:56:41.307Z,29.30
2022-11-20T03:01:42.088Z,33.20
2022-11-20T03:06:42.813Z,29.80
2022-11-20T03:11:43.529Z,31.20
2022-11-20T03:16:44.244Z,33.90
2022-11-20T03:21:44.973Z,33.50
2022-11-20T03:26:45.703Z,35.50
2022-11-20T03:31:46.449Z,34.90
2022-11-20T03:36:47.174Z,36.00
2022-11-20T03:41:47.914Z,35.90
2022-11-20T03:46:48.637Z,32.90
2022-11-20T03:51:49.401Z,33.50
2022-11-20T03:56:50.119Z,37.50
2022-11-20T04:01:50.879Z,40.90
2022-11-20T04:06:51.592Z,38.00
2022-11-20T04:11:52.317Z,33.50
2022-11-20T04:16:53.039Z,31.80
2022-11-20T04:21:53.749Z,28.50
2022-11-20T04:26:54.463Z,29.40
2022-11-20T04:31:55.181Z,29.20
2022-11-20T04:36:55.947Z,29.50
2022-11-20T04:41:56.669Z,28.00
2022-11-20T04:47:04.377Z,28.10
2022-11-20T04:51:58.097Z,27.20
2022-11-20T04:56:58.820Z,29.50
2022-11-20T05:01:59.406Z,29.00
2022-11-20T05:07:00.197Z,28.60
2022-11-20T05:12:00.904Z,29.20
2022-11-20T05:17:01.618Z,28.90
2022-11-20T05:22:02.379Z,28.60
2022-11-20T05:27:03.071Z,31.70
2022-11-20T05:32:03.827Z,28.40
2022-11-20T05:37:04.542Z,31.20
2022-11-20T05:42:05.258Z,32.70
2022-11-20T05:47:05.973Z,34.80
2022-11-20T05:52:06.716Z,32.60
2022-11-20T05:57:07.423Z,34.10
2022-11-20T06:02:08.147Z,35.60
2022-11-20T06:07:08.976Z,33.90
2022-11-20T06:12:09.602Z,30.30
2022-11-20T06:17:10.259Z,29.50
2022-11-20T06:22:10.929Z,28.60
2022-11-20T06:27:11.602Z,26.20
2022-11-20T06:32:12.258Z,27.50
2022-11-20T06:37:12.923Z,26.90
2022-11-20T06:42:13.609Z,27.60
2022-11-20T06:47:14.298Z,27.80
2022-11-20T06:52:14.957Z,27.30
2022-11-20T06:57:15.621Z,27.70
2022-11-20T07:02:16.298Z,26.40
2022-11-20T07:07:17.021Z,27.60
2022-11-20T07:12:17.766Z,26.80
2022-11-20T07:17:18.448Z,26.70
2022-11-20T07:22:19.132Z,28.60
2022-11-20T07:27:19.842Z,26.20
2022-11-20T07:32:20.580Z,26.90
2022-11-20T07:37:21.249Z,28.00
2022-11-20T07:42:22.078Z,27.80
2022-11-20T07:47:22.756Z,26.50
2022-11-20T07:52:23.429Z,30.70
2022-11-20T07:57:28.159Z,32.30
2022-11-20T08:02:24.616Z,27.10
2022-11-20T08:07:25.335Z,28.40
2022-11-20T08:12:25.989Z,28.10
2022-11-20T08:17:26.651Z,27.10
2022-11-20T08:22:27.395Z,30.90
2022-11-20T08:27:28.157Z,32.40
2022-11-20T08:32:28.589Z,30.50
2022-11-20T08:37:29.292Z,30.40
2022-11-20T08:42:30.015Z,33.20
2022-11-20T08:47:30.704Z,29.60
2022-11-20T08:52:33.432Z,28.90
2022-11-20T08:57:32.121Z,32.00
2022-11-20T09:02:32.810Z,31.30
2022-11-20T09:07:33.534Z,31.50
2022-11-20T09:12:34.223Z,30.60
2022-11-20T09:17:34.903Z,30.90
2022-11-20T09:22:35.563Z,30.60
2022-11-20T09:27:36.238Z,30.00
2022-11-20T09:32:36.907Z,32.40
2022-11-20T09:37:37.589Z,29.40
2022-11-20T09:42:38.272Z,29.70
2022-11-20T09:47:38.927Z,30.90
2022-11-20T09:52:39.609Z,31.30
2022-11-20T09:57:40.275Z,29.50
2022-11-20T10:02:40.947Z,28.90
2022-11-20T10:07:41.711Z,28.30
2022-11-20T10:12:42.436Z,27.70
2022-11-20T10:17:43.101Z,26.20
2022-11-20T10:22:43.761Z,26.80
2022-11-20T10:27:44.451Z,28.90
2022-11-20T10:32:45.150Z,27.50
2022-11-20T10:37:45.814Z,27.90
2022-11-20T10:42:46.547Z,25.80
2022-11-20T10:47:53.943Z,27.70
2022-11-20T10:52:47.577Z,25.50
2022-11-20T10:57:48.259Z,26.80
2022-11-20T11:02:48.924Z,26.60
2022-11-20T11:07:49.597Z,24.80
2022-11-20T11:12:50.349Z,25.60
2022-11-20T11:17:51.033Z,23.80
2022-11-20T11:22:51.730Z,25.80
2022-11-20T11:27:52.392Z,24.60
2022-11-20T11:32:53.184Z,24.30
2022-11-20T11:37:53.913Z,23.80
2022-11-20T11:42:54.589Z,25.00
2022-11-20T11:47:55.350Z,24.60
2022-11-20T11:52:56.031Z,21.80
2022-11-20T11:57:56.732Z,24.50
2022-11-20T12:02:57.497Z,31.10
2022-11-20T12:07:58.268Z,34.10
2022-11-20T12:12:58.992Z,30.80
2022-11-20T12:17:59.752Z,26.80
2022-11-20T12:23:00.489Z,22.70
2022-11-20T12:28:01.155Z,20.40
2022-11-20T12:33:01.821Z,23.50
2022-11-20T12:38:02.479Z,21.40
2022-11-20T12:43:03.153Z,20.90
2022-11-20T12:48:03.826Z,21.20
2022-11-20T12:53:04.485Z,17.70
2022-11-20T12:58:05.152Z,17.60
2022-11-20T13:03:05.812Z,18.00
2022-11-20T13:08:06.478Z,18.40
2022-11-20T13:13:07.131Z,18.20
2022-11-20T13:18:07.825Z,16.40
2022-11-20T13:23:08.497Z,19.10
2022-11-20T13:28:09.162Z,18.70
2022-11-20T13:33:09.825Z,22.90
2022-11-20T13:38:10.499Z,25.40
2022-11-20T13:43:11.163Z,27.00
2022-11-20T13:48:11.832Z,29.70
2022-11-20T13:53:12.508Z,25.10
2022-11-20T13:58:13.180Z,25.50
2022-11-20T14:03:13.848Z,23.10
2022-11-20T14:08:14.499Z,23.60
2022-11-20T14:13:15.194Z,20.20
2022-11-20T14:18:15.867Z,19.90
2022-11-20T14:23:16.546Z,21.70
2022-11-20T14:28:17.217Z,19.70
2022-11-20T14:33:17.905Z,19.40
2022-11-20T14:38:18.560Z,21.30
2022-11-20T14:43:19.258Z,19.30
2022-11-20T14:48:19.927Z,20.40
2022-11-20T14:53:20.598Z,21.30
2022-11-20T14:58:21.259Z,18.50
2022-11-20T15:03:21.972Z,23.00
2022-11-20T15:08:22.591Z,21.60
2022-11-20T15:13:23.259Z,23.40
2022-11-20T15:18:23.946Z,23.40
2022-11-20T15:23:24.616Z,24.10
2022-11-20T15:28:25.285Z,20.90
2022-11-20T15:33:25.959Z,20.80
2022-11-20T15:38:26.623Z,19.80
2022-11-20T15:43:27.368Z,22.70
2022-11-20T15:48:28.095Z,22.70
2022-11-20T15:53:28.842Z,19.20
2022-11-20T15:58:29.558Z,21.80
2022-11-20T16:03:30.285Z,24.00
2022-11-20T16:08:31.013Z,23.00
2022-11-20T16:13:31.725Z,22.50
2022-11-20T16:18:32.437Z,23.60
2022-11-20T16:23:33.173Z,20.40
2022-11-20T16:28:33.901Z,26.40
2022-11-20T16:33:34.614Z,27.60
2022-11-20T16:38:35.341Z,28.00
2022-11-20T16:43:36.049Z,24.30
2022-11-20T16:48:43.774Z,22.50
2022-11-20T16:53:37.645Z,21.50
2022-11-20T16:58:38.368Z,20.70
2022-11-20T17:03:38.968Z,22.40
2022-11-20T17:08:39.699Z,20.80
2022-11-20T17:13:40.557Z,20.70
2022-11-20T17:18:41.228Z,19.50
2022-11-20T17:23:41.942Z,21.50
2022-11-20T17:28:42.684Z,23.00
2022-11-20T17:33:43.492Z,21.50
2022-11-20T17:38:44.226Z,19.00
2022-11-20T17:43:45.021Z,20.30
2022-11-20T17:48:45.716Z,18.40
2022-11-20T17:53:46.439Z,16.80
2022-11-20T17:58:47.189Z,17.30
2022-11-20T18:03:47.888Z,20.50
2022-11-20T18:08:48.638Z,18.20
2022-11-20T18:13:49.373Z,19.70
2022-11-20T18:18:50.161Z,18.80
2022-11-20T18:23:50.865Z,20.60
2022-11-20T18:28:51.592Z,19.70
2022-11-20T18:33:52.299Z,20.70
2022-11-20T18:38:53.034Z,20.70
2022-11-20T18:43:53.836Z,19.90
2022-11-20T18:48:54.537Z,20.60
2022-11-20T18:53:55.267Z,21.20
2022-11-20T18:59:00.250Z,21.90
2022-11-20T19:03:57.586Z,21.40
2022-11-20T19:08:57.374Z,20.50
2022-11-20T19:13:58.060Z,20.90
2022-11-20T19:19:03.100Z,19.70
2022-11-20T19:23:59.671Z,20.30
2022-11-20T19:29:00.373Z,24.10
2022-11-20T19:34:01.231Z,22.60
2022-11-20T19:39:01.935Z,22.60
2022-11-20T19:44:02.713Z,25.10
2022-11-20T19:49:03.423Z,24.60
2022-11-20T19:54:04.155Z,23.20
2022-11-20T19:59:04.907Z,21.30
2022-11-20T20:04:05.644Z,22.20
2022-11-20T20:09:06.476Z,22.10
2022-11-20T20:14:07.227Z,21.40
2022-11-20T20:19:07.933Z,22.80
2022-11-20T20:24:08.734Z,21.40
2022-11-20T20:29:09.490Z,24.20
2022-11-20T20:34:10.262Z,23.20
2022-11-20T20:39:10.827Z,21.50
2022-11-20T20:44:11.560Z,19.40
2022-11-20T20:49:12.303Z,22.60
2022-11-20T20:54:13.037Z,20.40
2022-11-20T20:59:13.735Z,23.70
2022-11-20T21:04:14.462Z,22.60
2022-11-20T21:09:15.204Z,24.70
2022-11-20T21:14:15.938Z,26.00
2022-11-20T21:19:17.792Z,28.30
2022-11-20T21:24:17.487Z,30.10
2022-11-20T21:29:18.227Z,25.10
2022-11-20T21:34:18.944Z,25.60
2022-11-20T21:39:19.710Z,25.30
2022-11-20T21:44:35.840Z,21.30
2022-11-20T21:49:22.494Z,22.90
2022-11-20T21:54:22.334Z,23.90
2022-11-20T21:59:22.754Z,21.20
2022-11-20T22:04:23.823Z,22.60
2022-11-20T22:09:24.170Z,23.00
2022-11-20T22:14:25.152Z,21.70
2022-11-20T22:19:25.646Z,21.90
2022-11-20T22:24:26.618Z,23.30
2022-11-20T22:29:27.003Z,23.10
2022-11-20T22:34:27.764Z,22.80
2022-11-20T22:39:28.684Z,24.40
2022-11-20T22:44:28.944Z,24.20
2022-11-20T22:49:29.739Z,25.30
2022-11-20T22:54:30.490Z,24.10
2022-11-20T22:59:31.359Z,24.90
2022-11-20T23:04:32.270Z,23.80
2022-11-20T23:09:33.484Z,23.80
2022-11-20T23:14:40.679Z,23.90
2022-11-20T23:19:34.386Z,23.60
2022-11-20T23:24:35.011Z,23.40
2022-11-20T23:29:35.790Z,24.00
2022-11-20T23:34:36.448Z,26.30
2022-11-20T23:39:37.168Z,26.30
2022-11-20T23:44:37.905Z,26.90
2022-11-20T23:49:38.648Z,31.30
2022-11-20T23:54:39.371Z,30.20
2022-11-20T23:59:40.101Z,31.80
